This is the latest recevied weather packets stored in our database for station/object KE4AMH. If no packets are shown the sender has not sent any weather packets the latest 1 day(s).
| Time | Temp. | Humidity | Pressure | Rain* | Wind** | Luminosity | Snow |
|---|---|---|---|---|---|---|---|
| 1778110400 | 23.33° C | 80% | 1011.7 hPa | 0 mm | - | 1 W/m² | - |
| 1778106153 | 26.67° C | 64% | 1011.3 hPa | 0 mm | - | 57 W/m² | - |
| 1778105549 | 26.67° C | 65% | 1011.1 hPa | 0 mm | - | 81 W/m² | - |
| 1778105246 | 26.67° C | 65% | 1011 hPa | 0 mm | - | 76 W/m² | - |
| 1778101907 | 27.22° C | 66% | 1011.9 hPa | 0 mm | - | 146 W/m² | - |
| 1778100998 | 27.22° C | 65% | 1012.4 hPa | 0 mm | - | 113 W/m² | - |
| 1778099786 | 26.67° C | 68% | 1012.6 hPa | 0 mm | - | 148 W/m² | - |
| 1778099482 | 26.11° C | 69% | 1012.6 hPa | 0 mm | - | 119 W/m² | - |
| 1778098876 | 26.11° C | 67% | 1012.7 hPa | 0 mm | - | 157 W/m² | - |
| 1778098270 | 26.67° C | 69% | 1012.9 hPa | 0 mm | - | 170 W/m² | - |
| 1778097966 | 26.11° C | 68% | 1013.1 hPa | 0 mm | - | 212 W/m² | - |
| 1778097056 | 26.11° C | 68% | 1013.5 hPa | 0 mm | - | 148 W/m² | - |
| 1778096148 | 26.67° C | 66% | 1013.4 hPa | 0 mm | - | 276 W/m² | - |
| 1778095845 | 26.11° C | 67% | 1013.4 hPa | 0 mm | - | 237 W/m² | - |
| 1778094630 | 26.11° C | 67% | 1013.9 hPa | 0 mm | - | 514 W/m² | - |
| 1778090994 | 25.56° C | 67% | 1013.9 hPa | 0 mm | - | 254 W/m² | - |
| 1778090084 | 26.67° C | 65% | 1014.1 hPa | 0 mm | - | 343 W/m² | - |
| 1778088872 | 25.56° C | 67% | 1014.2 hPa | 0 mm | - | 404 W/m² | - |
| 1778086135 | 23.89° C | 73% | 1014.9 hPa | 0 mm | - | 220 W/m² | - |
| 1778085224 | 23.33° C | 75% | 1014.9 hPa | 0 mm | - | 215 W/m² | - |
| 1778084618 | 22.78° C | 76% | 1015.7 hPa | 0 mm | - | 130 W/m² | - |
| 1778084315 | 22.78° C | 75% | 1015.7 hPa | 0 mm | - | 106 W/m² | - |
| 1778084012 | 23.33° C | 73% | 1015.8 hPa | 0 mm | - | 91 W/m² | - |
| 1778083105 | 23.33° C | 73% | 1015.4 hPa | 0 mm | - | 175 W/m² | - |
| 1778082801 | 23.33° C | 73% | 1015.3 hPa | 0 mm | - | 396 W/m² | - |
* Rain latest hour (hover to see other rain measurements)
** Current wind speed in m/s (hover to see current wind gust speed)